createdAt,value
2023-11-30T00:00:02.731Z,100175.09
2023-11-30T00:02:33.532Z,100170.78
2023-11-30T00:05:01.413Z,100177.81
2023-11-30T00:07:32.131Z,100177.59
2023-11-30T00:10:00.036Z,100179.50
2023-11-30T00:12:28.760Z,100173.31
2023-11-30T00:14:56.788Z,100176.50
2023-11-30T00:17:24.656Z,100169.81
2023-11-30T00:19:52.238Z,100170.31
2023-11-30T00:22:20.040Z,100178.09
2023-11-30T00:24:47.968Z,100182.69
2023-11-30T00:27:15.696Z,100166.50
2023-11-30T00:29:43.646Z,100162.69
2023-11-30T00:32:11.477Z,100167.00
2023-11-30T00:34:39.205Z,100161.47
2023-11-30T00:37:06.743Z,100171.38
2023-11-30T00:39:35.013Z,100172.66
2023-11-30T00:42:02.882Z,100166.81
2023-11-30T00:44:30.827Z,100163.81
2023-11-30T00:46:58.443Z,100156.00
2023-11-30T00:49:28.027Z,100152.03
2023-11-30T00:51:55.675Z,100152.34
2023-11-30T00:54:23.736Z,100153.94
2023-11-30T00:56:51.526Z,100153.94
2023-11-30T00:59:19.324Z,100150.25
2023-11-30T01:01:47.073Z,100153.53
2023-11-30T01:04:15.030Z,100153.84
2023-11-30T01:06:43.183Z,100167.97
2023-11-30T01:09:11.818Z,100173.38
2023-11-30T01:11:44.077Z,100166.41
2023-11-30T01:14:12.315Z,100160.72
2023-11-30T01:16:40.986Z,100164.53
2023-11-30T01:19:09.192Z,100160.84
2023-11-30T01:21:37.019Z,100154.13
2023-11-30T01:24:07.499Z,100153.84
2023-11-30T01:26:37.134Z,100158.28
2023-11-30T01:29:05.940Z,100137.63
2023-11-30T01:31:35.081Z,100149.81
2023-11-30T01:34:02.838Z,100152.03
2023-11-30T01:36:31.111Z,100153.31
2023-11-30T01:38:58.885Z,100143.63
2023-11-30T01:41:26.923Z,100153.13
2023-11-30T01:43:54.752Z,100157.44
2023-11-30T01:46:22.974Z,100155.13
2023-11-30T01:48:50.774Z,100150.19
2023-11-30T01:51:19.161Z,100158.63
2023-11-30T01:53:46.925Z,100146.09
2023-11-30T01:56:15.880Z,100148.22
2023-11-30T01:58:44.180Z,100156.63
2023-11-30T02:01:12.143Z,100145.31
2023-11-30T02:03:40.513Z,100151.72
2023-11-30T02:06:08.875Z,100137.53
2023-11-30T02:08:36.654Z,100144.34
2023-11-30T02:11:04.640Z,100139.75
2023-11-30T02:13:32.403Z,100143.34
2023-11-30T02:16:00.225Z,100140.88
2023-11-30T02:18:28.036Z,100137.38
2023-11-30T02:21:00.650Z,100130.06
2023-11-30T02:23:28.363Z,100126.94
2023-11-30T02:25:56.008Z,100125.56
2023-11-30T02:28:23.791Z,100128.38
2023-11-30T02:30:52.505Z,100117.25
2023-11-30T02:33:20.406Z,100114.88
2023-11-30T02:35:48.441Z,100115.03
2023-11-30T02:38:19.080Z,100112.44
2023-11-30T02:40:46.809Z,100111.97
2023-11-30T02:43:17.269Z,100103.88
2023-11-30T02:45:44.961Z,100102.88
2023-11-30T02:48:12.968Z,100099.69
2023-11-30T02:50:40.713Z,100098.78
2023-11-30T02:53:10.958Z,100105.16
2023-11-30T02:55:38.695Z,100096.44
2023-11-30T02:58:06.382Z,100093.28
2023-11-30T03:00:34.820Z,100092.97
2023-11-30T03:03:02.586Z,100080.47
2023-11-30T03:05:32.342Z,100082.03
2023-11-30T03:08:00.309Z,100074.44
2023-11-30T03:10:28.071Z,100070.13
2023-11-30T03:12:55.801Z,100076.34
2023-11-30T03:15:24.603Z,100077.34
2023-11-30T03:17:53.135Z,100078.16
2023-11-30T03:20:21.266Z,100071.78
2023-11-30T03:22:49.170Z,100053.16
2023-11-30T03:25:17.181Z,100054.97
2023-11-30T03:27:44.915Z,100044.66
2023-11-30T03:30:13.031Z,100052.94
2023-11-30T03:32:40.997Z,100049.84
2023-11-30T03:35:09.407Z,100042.47
2023-11-30T03:37:41.509Z,100044.38
2023-11-30T03:40:09.985Z,100043.06
2023-11-30T03:42:40.586Z,100040.88
2023-11-30T03:45:09.050Z,100040.97
2023-11-30T03:47:37.057Z,100040.19
2023-11-30T03:50:05.114Z,100038.56
2023-11-30T03:52:33.480Z,100040.47
2023-11-30T03:55:01.090Z,100048.41
2023-11-30T03:57:28.858Z,100044.28
2023-11-30T03:59:56.864Z,100047.38
2023-11-30T04:02:24.702Z,100044.66
2023-11-30T04:04:52.569Z,100040.75
2023-11-30T04:07:23.496Z,100044.25
2023-11-30T04:09:51.886Z,100032.13
2023-11-30T04:12:19.748Z,100041.03
2023-11-30T04:14:47.468Z,100038.84
2023-11-30T04:17:15.251Z,100042.94
2023-11-30T04:19:43.246Z,100047.66
2023-11-30T04:22:11.655Z,100045.47
2023-11-30T04:24:39.684Z,100040.97
2023-11-30T04:27:07.335Z,100052.25
2023-11-30T04:29:35.511Z,100042.56
2023-11-30T04:32:03.864Z,100046.06
2023-11-30T04:34:31.707Z,100029.66
2023-11-30T04:36:59.535Z,100042.38
2023-11-30T04:39:27.261Z,100045.06
2023-11-30T04:41:55.181Z,100046.97
2023-11-30T04:44:24.197Z,100050.19
2023-11-30T04:46:52.139Z,100050.19
2023-11-30T04:49:19.790Z,100042.09
2023-11-30T04:51:47.480Z,100052.56
2023-11-30T04:54:16.971Z,100050.66
2023-11-30T04:56:44.741Z,100060.34
2023-11-30T04:59:12.724Z,100055.97
2023-11-30T05:01:40.657Z,100052.66
2023-11-30T05:04:08.760Z,100052.34
2023-11-30T05:06:36.594Z,100052.03
2023-11-30T05:09:04.493Z,100050.91
2023-11-30T05:11:35.337Z,100048.22
2023-11-30T05:14:03.127Z,100053.03
2023-11-30T05:16:31.127Z,100048.22
2023-11-30T05:18:58.897Z,100043.81
2023-11-30T05:21:27.089Z,100044.13
2023-11-30T05:23:54.852Z,100041.13
2023-11-30T05:26:22.524Z,100040.00
2023-11-30T05:28:50.342Z,100035.41
2023-11-30T05:31:18.300Z,100043.81
2023-11-30T05:33:46.112Z,100041.44
2023-11-30T05:36:16.624Z,100038.22
2023-11-30T05:38:44.462Z,100038.84
2023-11-30T05:41:13.134Z,100038.84
2023-11-30T05:43:42.887Z,100042.34
2023-11-30T05:46:11.612Z,100045.03
2023-11-30T05:48:39.658Z,100038.66
2023-11-30T05:51:08.352Z,100041.16
2023-11-30T05:53:37.210Z,100043.84
2023-11-30T05:56:05.321Z,100044.03
2023-11-30T05:58:33.696Z,100043.56
2023-11-30T06:01:01.483Z,100038.28
2023-11-30T06:03:29.437Z,100032.00
2023-11-30T06:05:57.507Z,100029.97
2023-11-30T06:08:28.245Z,100022.56
2023-11-30T06:10:56.052Z,100021.28
2023-11-30T06:13:25.880Z,100009.78
2023-11-30T06:15:54.120Z,100016.91
2023-11-30T06:18:22.057Z,100019.09
2023-11-30T06:20:50.052Z,100014.56
2023-11-30T06:23:20.511Z,100009.31
2023-11-30T06:25:52.042Z,100008.53
2023-11-30T06:28:22.530Z,100007.44
2023-11-30T06:30:50.360Z,100008.41
2023-11-30T06:33:18.100Z,100007.25
2023-11-30T06:35:45.878Z,100000.94
2023-11-30T06:38:19.702Z,99992.22
2023-11-30T06:40:48.660Z,99990.53
2023-11-30T06:43:16.551Z,99991.81
2023-11-30T06:45:44.596Z,99990.16
2023-11-30T06:48:12.367Z,99974.75
2023-11-30T06:50:43.025Z,99977.56
2023-11-30T06:53:10.969Z,99972.66
2023-11-30T06:55:42.754Z,99977.75
2023-11-30T06:58:10.685Z,99982.28
2023-11-30T07:00:38.486Z,99975.78
2023-11-30T07:03:06.384Z,99976.38
2023-11-30T07:05:34.287Z,99969.88
2023-11-30T07:08:02.121Z,99971.19
2023-11-30T07:10:30.718Z,99963.00
2023-11-30T07:12:58.259Z,99974.09
2023-11-30T07:15:28.871Z,99968.19
2023-11-30T07:17:56.692Z,99962.53
2023-11-30T07:20:24.331Z,99969.03
2023-11-30T07:22:52.165Z,99962.75
2023-11-30T07:25:19.952Z,99962.63
2023-11-30T07:27:47.734Z,99962.53
2023-11-30T07:30:15.765Z,99945.75
2023-11-30T07:32:44.127Z,99952.94
2023-11-30T07:35:12.067Z,99947.66
2023-11-30T07:37:45.984Z,99959.94
2023-11-30T07:40:14.027Z,99955.25
2023-11-30T07:42:41.707Z,99958.72
2023-11-30T07:45:10.599Z,99953.06
2023-11-30T07:47:38.445Z,99953.56
2023-11-30T07:50:06.860Z,99953.16
2023-11-30T07:52:38.409Z,99953.75
2023-11-30T07:55:07.145Z,99953.66
2023-11-30T07:57:35.237Z,99961.53
2023-11-30T08:00:07.387Z,99958.56
2023-11-30T08:02:35.653Z,99958.78
2023-11-30T08:05:03.465Z,99955.78
2023-11-30T08:07:31.231Z,99960.53
2023-11-30T08:09:58.909Z,99966.94
2023-11-30T08:12:26.757Z,99972.94
2023-11-30T08:14:55.260Z,99982.13
2023-11-30T08:17:23.147Z,99981.22
2023-11-30T08:19:51.231Z,99991.22
2023-11-30T08:22:18.921Z,99979.47
2023-11-30T08:24:47.224Z,99981.63
2023-11-30T08:27:15.168Z,99970.75
2023-11-30T08:29:43.089Z,99982.44
2023-11-30T08:32:12.138Z,99979.75
2023-11-30T08:34:39.889Z,99986.44
2023-11-30T08:37:07.778Z,99992.63
2023-11-30T08:39:35.471Z,99982.44
2023-11-30T08:42:03.495Z,99974.84
2023-11-30T08:44:31.284Z,99982.44
2023-11-30T08:46:58.973Z,99991.63
2023-11-30T08:49:26.905Z,99996.13
2023-11-30T08:51:54.934Z,99999.13
2023-11-30T08:54:25.612Z,99990.13
2023-11-30T08:56:54.011Z,99986.66
2023-11-30T08:59:22.787Z,99985.34
2023-11-30T09:01:53.667Z,99993.31
2023-11-30T09:04:21.807Z,99991.41
2023-11-30T09:06:50.008Z,99990.84
2023-11-30T09:09:18.554Z,99991.41
2023-11-30T09:11:46.294Z,99992.22
2023-11-30T09:14:14.084Z,99986.59
2023-11-30T09:16:41.820Z,99982.84
2023-11-30T09:19:09.547Z,99978.53
2023-11-30T09:21:37.474Z,99984.91
2023-11-30T09:24:05.777Z,99983.31
2023-11-30T09:26:33.773Z,99966.53
2023-11-30T09:29:01.392Z,99993.53
2023-11-30T09:31:29.193Z,99997.03
2023-11-30T09:33:57.137Z,99995.81
2023-11-30T09:36:25.008Z,99990.41
2023-11-30T09:38:52.746Z,99998.41
2023-11-30T09:41:26.822Z,99998.72
2023-11-30T09:43:57.095Z,99995.31
2023-11-30T09:46:25.783Z,99998.13
2023-11-30T09:48:53.636Z,99997.81
2023-11-30T09:51:23.018Z,99991.94
2023-11-30T09:53:51.786Z,99991.22
2023-11-30T09:56:20.746Z,99993.84
2023-11-30T09:58:49.047Z,99988.44
2023-11-30T10:01:16.733Z,99974.22
2023-11-30T10:03:44.697Z,99969.56
2023-11-30T10:06:13.915Z,99983.13
2023-11-30T10:08:41.677Z,99989.31
2023-11-30T10:11:10.166Z,99991.72
2023-11-30T10:13:38.342Z,99979.63
2023-11-30T10:16:06.797Z,99980.16
2023-11-30T10:18:35.774Z,99977.56
2023-11-30T10:21:04.230Z,99960.84
2023-11-30T10:23:34.568Z,99955.16
2023-11-30T10:26:03.781Z,99949.47
2023-11-30T10:28:32.338Z,99938.16
2023-11-30T10:31:05.240Z,99931.38
2023-11-30T10:33:39.226Z,99940.28
2023-11-30T10:36:08.395Z,99931.88
2023-11-30T10:38:38.977Z,99932.09
2023-11-30T10:41:11.617Z,99942.41
2023-11-30T10:43:48.767Z,99947.47
2023-11-30T10:46:17.647Z,99945.78
2023-11-30T10:48:45.574Z,99934.09
2023-11-30T10:51:15.903Z,99925.59
2023-11-30T10:54:15.159Z,99922.78
2023-11-30T10:56:43.542Z,99923.00
2023-11-30T10:59:18.596Z,99925.19
2023-11-30T11:01:52.509Z,99916.13
2023-11-30T11:04:30.576Z,99907.22
2023-11-30T11:07:09.054Z,99916.78
2023-11-30T11:09:44.877Z,99917.09
2023-11-30T11:12:23.902Z,99900.03
2023-11-30T11:15:05.899Z,99901.31
2023-11-30T11:17:35.042Z,99900.03
2023-11-30T11:20:04.345Z,99894.22
2023-11-30T11:22:36.348Z,99883.75
2023-11-30T11:25:07.814Z,99889.13
2023-11-30T11:27:35.770Z,99882.72
2023-11-30T11:30:08.571Z,99871.75
2023-11-30T11:32:36.720Z,99869.25
2023-11-30T11:35:06.608Z,99862.94
2023-11-30T11:37:34.503Z,99835.16
2023-11-30T11:40:03.862Z,99829.03
2023-11-30T11:42:33.788Z,99833.06
2023-11-30T11:45:05.841Z,99826.00
2023-11-30T11:47:34.359Z,99823.19
2023-11-30T11:50:02.574Z,99831.97
2023-11-30T11:52:32.032Z,99827.56
2023-11-30T11:55:01.555Z,99842.22
2023-11-30T11:57:34.546Z,99836.72
2023-11-30T12:00:02.345Z,99825.13
2023-11-30T12:02:37.676Z,99811.97
2023-11-30T12:05:12.880Z,99808.13
2023-11-30T12:07:53.310Z,99800.47
2023-11-30T12:10:46.277Z,99808.06
2023-11-30T12:13:16.163Z,99816.88
2023-11-30T12:15:45.461Z,99809.78
2023-11-30T12:18:15.001Z,99822.75
2023-11-30T12:20:44.977Z,99819.47
2023-11-30T12:23:13.837Z,99815.19
2023-11-30T12:25:41.742Z,99802.41
2023-11-30T12:28:09.567Z,99811.94
2023-11-30T12:30:39.852Z,99817.59
2023-11-30T12:33:14.209Z,99810.69
2023-11-30T12:35:42.905Z,99789.44
2023-11-30T12:38:10.677Z,99776.75
2023-11-30T12:40:38.520Z,99780.34
2023-11-30T12:43:07.015Z,99785.13
2023-11-30T12:45:37.807Z,99790.16
2023-11-30T12:48:06.501Z,99783.19
2023-11-30T12:50:35.120Z,99782.19
2023-11-30T12:53:03.226Z,99772.81
2023-11-30T12:55:31.129Z,99762.41
2023-11-30T12:57:58.971Z,99759.78
2023-11-30T13:00:27.241Z,99764.19
2023-11-30T13:02:55.183Z,99757.56
2023-11-30T13:05:24.162Z,99756.69
2023-11-30T13:07:54.768Z,99747.19
2023-11-30T13:10:24.178Z,99753.75
2023-11-30T13:12:52.104Z,99750.63
2023-11-30T13:15:19.910Z,99760.31
2023-11-30T13:17:48.150Z,99755.22
2023-11-30T13:20:16.199Z,99755.22
2023-11-30T13:22:46.208Z,99744.00
2023-11-30T13:25:17.068Z,99740.50
2023-11-30T13:27:48.542Z,99749.22
2023-11-30T13:30:17.981Z,99753.75
2023-11-30T13:32:47.457Z,99754.50
2023-11-30T13:35:15.729Z,99755.34
2023-11-30T13:37:44.833Z,99748.72
2023-11-30T13:40:13.156Z,99740.22
2023-11-30T13:42:42.456Z,99747.38
2023-11-30T13:45:10.876Z,99747.00
2023-11-30T13:47:41.495Z,99736.28
2023-11-30T13:50:19.144Z,99736.72
2023-11-30T13:52:54.269Z,99724.59
2023-11-30T13:55:22.103Z,99737.56
2023-11-30T13:57:53.007Z,99724.59
2023-11-30T14:00:24.386Z,99726.50
2023-11-30T14:02:53.040Z,99731.38
2023-11-30T14:05:21.193Z,99726.00
2023-11-30T14:07:49.063Z,99732.69
2023-11-30T14:10:17.815Z,99733.59
2023-11-30T14:12:45.569Z,99739.78
2023-11-30T14:15:13.631Z,99731.88
2023-11-30T14:17:44.333Z,99738.19
2023-11-30T14:20:12.236Z,99740.50
2023-11-30T14:22:41.568Z,99735.09
2023-11-30T14:25:10.267Z,99732.81
2023-11-30T14:27:37.893Z,99737.09
2023-11-30T14:30:10.849Z,99741.44
2023-11-30T14:32:40.929Z,99738.31
2023-11-30T14:35:09.388Z,99736.25
2023-11-30T14:37:37.428Z,99724.34
2023-11-30T14:40:09.829Z,99720.88
2023-11-30T14:42:37.675Z,99717.13
2023-11-30T14:45:07.339Z,99714.91
2023-11-30T14:47:41.035Z,99700.84
2023-11-30T14:50:12.150Z,99712.16
2023-11-30T14:52:46.193Z,99709.25
2023-11-30T14:55:14.735Z,99703.88
2023-11-30T14:57:43.457Z,99707.22
2023-11-30T15:00:13.700Z,99702.41
2023-11-30T15:02:43.324Z,99695.38
2023-11-30T15:05:15.257Z,99696.34
2023-11-30T15:07:43.857Z,99711.09
2023-11-30T15:10:12.717Z,99715.38
2023-11-30T15:12:40.890Z,99710.13
2023-11-30T15:15:15.061Z,99700.34
2023-11-30T15:17:45.697Z,99712.44
2023-11-30T15:20:14.199Z,99704.25
2023-11-30T15:22:42.819Z,99698.31
2023-11-30T15:25:18.413Z,99704.06
2023-11-30T15:27:48.279Z,99696.06
2023-11-30T15:30:16.773Z,99703.63
2023-11-30T15:32:44.650Z,99707.75
2023-11-30T15:35:12.386Z,99709.03
2023-11-30T15:37:40.477Z,99706.22
2023-11-30T15:40:12.003Z,99708.34
2023-11-30T15:42:40.130Z,99710.25
2023-11-30T15:45:12.836Z,99699.91
2023-11-30T15:47:41.829Z,99702.41
2023-11-30T15:50:14.554Z,99695.75
2023-11-30T15:52:43.813Z,99681.69
2023-11-30T15:55:13.334Z,99690.91
2023-11-30T15:57:42.912Z,99692.78
2023-11-30T16:00:11.268Z,99685.81
2023-11-30T16:02:49.071Z,99694.38
2023-11-30T16:05:17.063Z,99685.97
2023-11-30T16:07:45.000Z,99687.59
2023-11-30T16:10:13.026Z,99687.75
2023-11-30T16:12:41.167Z,99712.34
2023-11-30T16:15:11.957Z,99712.69
2023-11-30T16:17:39.806Z,99700.25
2023-11-30T16:20:12.070Z,99678.75
2023-11-30T16:22:41.170Z,99664.16
2023-11-30T16:25:12.537Z,99670.66
2023-11-30T16:27:42.915Z,99679.38
2023-11-30T16:30:12.674Z,99685.13
2023-11-30T16:32:40.521Z,99677.75
2023-11-30T16:35:13.813Z,99679.53
2023-11-30T16:37:42.209Z,99682.75
2023-11-30T16:40:11.953Z,99680.47
2023-11-30T16:42:41.524Z,99683.28
2023-11-30T16:45:15.380Z,99674.72
2023-11-30T16:47:49.207Z,99664.25
2023-11-30T16:50:16.977Z,99673.94
2023-11-30T16:52:49.076Z,99681.69
2023-11-30T16:55:16.964Z,99676.50
2023-11-30T16:57:44.731Z,99666.63
2023-11-30T17:00:13.122Z,99661.25
2023-11-30T17:02:42.124Z,99659.03
2023-11-30T17:05:11.839Z,99661.56
2023-11-30T17:07:42.429Z,99668.34
2023-11-30T17:10:13.289Z,99656.44
2023-11-30T17:12:41.285Z,99660.63
2023-11-30T17:15:12.036Z,99681.09
2023-11-30T17:17:39.983Z,99684.13
2023-11-30T17:20:11.331Z,99683.34
2023-11-30T17:22:39.020Z,99685.13
2023-11-30T17:25:07.220Z,99690.50
2023-11-30T17:27:35.746Z,99687.34
2023-11-30T17:30:05.633Z,99681.81
2023-11-30T17:32:33.514Z,99669.72
2023-11-30T17:35:01.405Z,99658.09
2023-11-30T17:37:29.478Z,99661.66
2023-11-30T17:39:57.365Z,99666.97
2023-11-30T17:42:25.202Z,99664.16
2023-11-30T17:44:53.173Z,99659.88
2023-11-30T17:47:21.472Z,99660.72
2023-11-30T17:49:49.205Z,99651.31
2023-11-30T17:52:16.892Z,99639.88
2023-11-30T17:54:44.702Z,99638.31
2023-11-30T17:57:12.476Z,99636.91
2023-11-30T17:59:40.546Z,99647.69
2023-11-30T18:02:08.371Z,99641.91
2023-11-30T18:04:36.084Z,99651.31
2023-11-30T18:07:05.651Z,99667.97
2023-11-30T18:09:33.356Z,99683.16
2023-11-30T18:12:01.230Z,99676.38
2023-11-30T18:14:34.789Z,99680.97
2023-11-30T18:17:04.007Z,99678.56
2023-11-30T18:19:32.466Z,99665.25
2023-11-30T18:22:00.387Z,99665.06
2023-11-30T18:24:31.826Z,99670.19
2023-11-30T18:27:03.915Z,99683.78
2023-11-30T18:29:31.756Z,99676.97
2023-11-30T18:31:59.625Z,99684.19
2023-11-30T18:34:27.400Z,99682.63
2023-11-30T18:36:55.832Z,99688.19
2023-11-30T18:39:27.158Z,99678.22
2023-11-30T18:41:56.367Z,99681.03
2023-11-30T18:44:24.611Z,99681.94
2023-11-30T18:46:52.552Z,99678.66
2023-11-30T18:49:20.429Z,99680.50
2023-11-30T18:51:51.311Z,99683.78
2023-11-30T18:54:22.107Z,99676.19
2023-11-30T18:56:50.001Z,99657.03
2023-11-30T18:59:21.068Z,99666.03
2023-11-30T19:01:49.057Z,99672.22
2023-11-30T19:04:16.878Z,99670.81
2023-11-30T19:06:44.691Z,99671.19
2023-11-30T19:09:14.443Z,99674.34
2023-11-30T19:11:45.625Z,99663.78
2023-11-30T19:14:13.355Z,99671.19
2023-11-30T19:16:41.796Z,99654.91
2023-11-30T19:19:09.914Z,99657.75
2023-11-30T19:21:41.862Z,99672.97
2023-11-30T19:24:12.275Z,99651.44
2023-11-30T19:26:42.451Z,99650.28
2023-11-30T19:29:14.312Z,99634.97
2023-11-30T19:31:42.198Z,99633.81
2023-11-30T19:34:13.378Z,99640.53
2023-11-30T19:36:41.675Z,99639.13
2023-11-30T19:39:09.752Z,99650.41
2023-11-30T19:41:41.343Z,99638.72
2023-11-30T19:44:09.386Z,99647.47
2023-11-30T19:46:38.501Z,99662.28
2023-11-30T19:49:06.267Z,99667.81
2023-11-30T19:51:33.959Z,99664.50
2023-11-30T19:54:01.858Z,99659.13
2023-11-30T19:56:29.942Z,99649.06
2023-11-30T19:58:57.625Z,99647.66
2023-11-30T20:01:25.428Z,99658.72
2023-11-30T20:03:53.410Z,99644.78
2023-11-30T20:06:21.450Z,99656.47
2023-11-30T20:08:49.654Z,99636.88
2023-11-30T20:11:17.578Z,99661.94
2023-11-30T20:13:45.552Z,99678.16
2023-11-30T20:16:15.181Z,99685.63
2023-11-30T20:18:43.468Z,99674.72
2023-11-30T20:21:20.897Z,99658.47
2023-11-30T20:23:49.454Z,99654.94
2023-11-30T20:26:19.255Z,99659.97
2023-11-30T20:28:50.438Z,99633.69
2023-11-30T20:31:21.487Z,99638.34
2023-11-30T20:33:52.748Z,99634.34
2023-11-30T20:36:21.315Z,99630.75
2023-11-30T20:38:49.368Z,99660.63
2023-11-30T20:41:17.203Z,99651.13
2023-11-30T20:43:50.339Z,99671.66
2023-11-30T20:46:20.913Z,99665.84
2023-11-30T20:48:49.352Z,99689.19
2023-11-30T20:51:19.172Z,99671.91
2023-11-30T20:53:47.195Z,99673.41
2023-11-30T20:56:15.065Z,99640.34
2023-11-30T20:58:44.833Z,99689.84
2023-11-30T21:01:13.067Z,99673.16
2023-11-30T21:03:41.618Z,99688.00
2023-11-30T21:06:10.773Z,99663.34
2023-11-30T21:08:39.354Z,99671.41
2023-11-30T21:11:07.418Z,99680.16
2023-11-30T21:13:35.276Z,99686.91
2023-11-30T21:16:03.376Z,99683.72
2023-11-30T21:18:32.002Z,99660.84
2023-11-30T21:21:00.373Z,99660.53
2023-11-30T21:23:31.779Z,99650.19
2023-11-30T21:25:59.869Z,99646.06
2023-11-30T21:28:28.936Z,99654.78
2023-11-30T21:30:57.031Z,99646.06
2023-11-30T21:33:25.504Z,99635.59
2023-11-30T21:35:53.171Z,99648.78
2023-11-30T21:38:20.918Z,99624.09
2023-11-30T21:40:48.908Z,99625.78
2023-11-30T21:43:18.787Z,99640.72
2023-11-30T21:45:46.590Z,99638.16
2023-11-30T21:48:15.052Z,99639.47
2023-11-30T21:50:44.014Z,99648.53
2023-11-30T21:53:12.252Z,99638.34
2023-11-30T21:55:40.761Z,99632.16
2023-11-30T21:58:08.935Z,99646.63
2023-11-30T22:00:37.189Z,99633.00
2023-11-30T22:03:04.934Z,99647.41
2023-11-30T22:05:36.483Z,99630.13
2023-11-30T22:08:05.488Z,99650.91
2023-11-30T22:10:33.122Z,99654.88
2023-11-30T22:13:01.155Z,99636.50
2023-11-30T22:15:29.032Z,99639.63
2023-11-30T22:17:57.975Z,99625.66
2023-11-30T22:20:25.639Z,99628.81
2023-11-30T22:22:53.690Z,99629.59
2023-11-30T22:25:21.426Z,99639.72
2023-11-30T22:27:50.419Z,99642.72
2023-11-30T22:30:20.371Z,99658.59
2023-11-30T22:32:48.082Z,99652.09
2023-11-30T22:35:16.005Z,99641.44
2023-11-30T22:37:44.953Z,99633.53
2023-11-30T22:40:13.042Z,99642.06
2023-11-30T22:42:42.596Z,99641.44
2023-11-30T22:45:13.845Z,99639.41
2023-11-30T22:47:41.695Z,99626.41
2023-11-30T22:50:09.939Z,99611.66
2023-11-30T22:52:37.925Z,99602.78
2023-11-30T22:55:06.263Z,99587.22
2023-11-30T22:57:34.665Z,99595.81
2023-11-30T23:00:02.536Z,99611.66
2023-11-30T23:02:30.504Z,99611.34
2023-11-30T23:05:01.293Z,99617.53
2023-11-30T23:07:29.684Z,99628.03
2023-11-30T23:09:57.642Z,99629.41
2023-11-30T23:12:25.406Z,99625.19
2023-11-30T23:14:53.143Z,99619.00
2023-11-30T23:17:21.890Z,99622.66
2023-11-30T23:19:49.940Z,99615.34
2023-11-30T23:22:17.625Z,99598.38
2023-11-30T23:24:45.396Z,99586.50
2023-11-30T23:27:13.048Z,99595.03
2023-11-30T23:29:41.615Z,99602.66
2023-11-30T23:32:09.402Z,99597.44
2023-11-30T23:34:38.359Z,99607.56
2023-11-30T23:37:06.136Z,99591.59
2023-11-30T23:39:34.093Z,99569.50
2023-11-30T23:42:01.926Z,99569.50
2023-11-30T23:44:29.642Z,99564.13
2023-11-30T23:46:57.427Z,99567.44
2023-11-30T23:49:25.265Z,99568.06
2023-11-30T23:51:53.062Z,99559.69
2023-11-30T23:54:23.288Z,99567.13
2023-11-30T23:56:51.125Z,99570.00
2023-11-30T23:59:18.809Z,99572.19
